createdAt,value
2019-03-19T00:00:26.454Z,79918.67
2019-03-19T00:02:55.684Z,79900.47
2019-03-19T00:05:24.975Z,79902.50
2019-03-19T00:07:54.151Z,79915.64
2019-03-19T00:10:23.368Z,79897.44
2019-03-19T00:12:52.844Z,79912.61
2019-03-19T00:15:23.776Z,79917.66
2019-03-19T00:17:52.955Z,79915.64
2019-03-19T00:20:22.361Z,79925.75
2019-03-19T00:22:53.330Z,79915.64
2019-03-19T00:25:30.112Z,79908.56
2019-03-19T00:27:54.489Z,79903.50
2019-03-19T00:30:23.708Z,79922.72
2019-03-19T00:32:53.219Z,79914.63
2019-03-19T00:35:22.369Z,79929.79
2019-03-19T00:37:51.898Z,79929.79
2019-03-19T00:40:21.129Z,79932.82
2019-03-19T00:42:50.606Z,79937.88
2019-03-19T00:45:20.134Z,79946.97
2019-03-19T00:47:49.332Z,79954.05
2019-03-19T00:50:18.540Z,79972.25
2019-03-19T00:52:48.020Z,79988.42
2019-03-19T00:55:18.006Z,79997.52
2019-03-19T00:57:47.878Z,80004.59
2019-03-19T01:00:17.669Z,80021.78
2019-03-19T01:02:47.202Z,80039.97
2019-03-19T01:05:16.764Z,80050.08
2019-03-19T01:07:46.392Z,80033.91
2019-03-19T01:10:17.436Z,80038.97
2019-03-19T01:12:47.119Z,80043.01
2019-03-19T01:15:16.775Z,80043.01
2019-03-19T01:17:45.939Z,80033.91
2019-03-19T01:20:15.459Z,80040.98
2019-03-19T01:22:46.955Z,80060.19
2019-03-19T01:25:16.226Z,80073.34
2019-03-19T01:27:45.408Z,80068.28
2019-03-19T01:30:14.677Z,80075.36
2019-03-19T01:32:44.189Z,80067.27
2019-03-19T01:35:13.357Z,80092.55
2019-03-19T01:37:42.525Z,80091.53
2019-03-19T01:40:11.797Z,80090.52
2019-03-19T01:42:41.417Z,80089.51
2019-03-19T01:45:10.662Z,80082.44
2019-03-19T01:47:39.830Z,80078.39
2019-03-19T01:50:09.333Z,80075.36
2019-03-19T01:52:38.883Z,80082.44
2019-03-19T01:55:09.802Z,80099.62
2019-03-19T01:57:39.011Z,80091.53
2019-03-19T02:00:10.155Z,80089.51
2019-03-19T02:02:40.783Z,80104.67
2019-03-19T02:05:09.932Z,80106.70
2019-03-19T02:07:39.376Z,80099.62
2019-03-19T02:10:09.331Z,80103.66
2019-03-19T02:12:38.863Z,80107.70
2019-03-19T02:15:10.083Z,80121.86
2019-03-19T02:17:39.231Z,80136.02
2019-03-19T02:20:10.412Z,80122.87
2019-03-19T02:22:40.160Z,80118.83
2019-03-19T02:25:11.185Z,80127.92
2019-03-19T02:27:42.567Z,80109.73
2019-03-19T02:30:12.325Z,80121.86
2019-03-19T02:32:41.813Z,80139.05
2019-03-19T02:35:11.167Z,80139.05
2019-03-19T02:37:40.635Z,80118.83
2019-03-19T02:40:10.177Z,80117.81
2019-03-19T02:42:39.450Z,80141.06
2019-03-19T02:45:09.154Z,80138.03
2019-03-19T02:47:38.317Z,80131.97
2019-03-19T02:50:08.622Z,80139.05
2019-03-19T02:52:38.583Z,80144.09
2019-03-19T02:55:09.574Z,80156.23
2019-03-19T02:57:38.816Z,80174.42
2019-03-19T03:00:09.771Z,80189.59
2019-03-19T03:02:41.153Z,80179.48
2019-03-19T03:05:11.567Z,80181.50
2019-03-19T03:07:41.049Z,80191.61
2019-03-19T03:10:11.024Z,80186.56
2019-03-19T03:12:40.193Z,80192.63
2019-03-19T03:15:09.665Z,80194.64
2019-03-19T03:17:38.860Z,80203.75
2019-03-19T03:20:08.792Z,80193.64
2019-03-19T03:22:37.929Z,80196.67
2019-03-19T03:25:07.692Z,80216.89
2019-03-19T03:27:36.920Z,80213.86
2019-03-19T03:30:07.052Z,80234.07
2019-03-19T03:32:36.897Z,80240.14
2019-03-19T03:35:06.830Z,80219.92
2019-03-19T03:37:36.328Z,80210.82
2019-03-19T03:40:06.590Z,80207.79
2019-03-19T03:42:35.918Z,80197.68
2019-03-19T03:45:05.683Z,80213.86
2019-03-19T03:47:35.030Z,80229.02
2019-03-19T03:50:05.084Z,80227.00
2019-03-19T03:52:34.272Z,80241.15
2019-03-19T03:55:03.480Z,80238.12
2019-03-19T03:57:33.066Z,80212.84
2019-03-19T04:00:02.232Z,80200.71
2019-03-19T04:02:31.417Z,80216.89
2019-03-19T04:05:00.618Z,80233.06
2019-03-19T04:07:30.422Z,80242.16
2019-03-19T04:09:59.649Z,80241.15
2019-03-19T04:12:29.177Z,80243.17
2019-03-19T04:14:58.377Z,80232.05
2019-03-19T04:17:27.581Z,80235.08
2019-03-19T04:19:56.776Z,80230.03
2019-03-19T04:22:25.974Z,80225.98
2019-03-19T04:24:55.227Z,80224.98
2019-03-19T04:27:25.262Z,80240.14
2019-03-19T04:29:54.458Z,80254.30
2019-03-19T04:32:23.715Z,80254.30
2019-03-19T04:34:53.566Z,80249.23
2019-03-19T04:37:22.750Z,80231.04
2019-03-19T04:39:51.932Z,80246.20
2019-03-19T04:42:21.465Z,80244.19
2019-03-19T04:44:50.666Z,80242.16
2019-03-19T04:47:19.817Z,80254.30
2019-03-19T04:49:49.379Z,80255.30
2019-03-19T04:52:18.877Z,80255.30
2019-03-19T04:54:48.457Z,80261.38
2019-03-19T04:57:26.279Z,80267.44
2019-03-19T04:59:49.005Z,80267.44
2019-03-19T05:02:21.460Z,80264.41
2019-03-19T05:04:50.640Z,80275.52
2019-03-19T05:07:19.891Z,80267.44
2019-03-19T05:09:49.660Z,80280.58
2019-03-19T05:12:18.826Z,80291.70
2019-03-19T05:14:48.123Z,80289.67
2019-03-19T05:17:17.723Z,80267.44
2019-03-19T05:19:47.308Z,80286.64
2019-03-19T05:22:16.525Z,80283.61
2019-03-19T05:24:46.299Z,80280.58
2019-03-19T05:27:15.811Z,80300.80
2019-03-19T05:29:46.835Z,80300.80
2019-03-19T05:32:16.249Z,80318.99
2019-03-19T05:34:45.756Z,80320.00
2019-03-19T05:37:15.282Z,80315.96
2019-03-19T05:39:44.526Z,80327.08
2019-03-19T05:42:13.736Z,80340.22
2019-03-19T05:44:42.948Z,80348.31
2019-03-19T05:47:12.831Z,80357.41
2019-03-19T05:49:42.049Z,80345.28
2019-03-19T05:52:11.646Z,80340.22
2019-03-19T05:54:40.853Z,80343.26
2019-03-19T05:57:10.058Z,80324.05
2019-03-19T05:59:40.142Z,80331.13
2019-03-19T06:02:09.451Z,80329.10
2019-03-19T06:04:38.963Z,80315.96
2019-03-19T06:07:08.138Z,80305.85
2019-03-19T06:09:37.280Z,80309.89
2019-03-19T06:12:06.512Z,80284.63
2019-03-19T06:14:35.761Z,80268.45
2019-03-19T06:17:05.268Z,80275.52
2019-03-19T06:19:34.499Z,80264.41
2019-03-19T06:22:03.719Z,80273.50
2019-03-19T06:24:33.264Z,80256.31
2019-03-19T06:27:02.792Z,80259.34
2019-03-19T06:29:32.005Z,80236.09
2019-03-19T06:32:01.506Z,80229.02
2019-03-19T06:34:30.691Z,80211.83
2019-03-19T06:37:01.572Z,80212.84
2019-03-19T06:39:30.869Z,80196.67
2019-03-19T06:42:00.077Z,80184.53
2019-03-19T06:44:29.300Z,80167.35
2019-03-19T06:46:58.442Z,80168.36
2019-03-19T06:49:27.641Z,80156.23
2019-03-19T06:51:56.869Z,80147.13
2019-03-19T06:54:28.638Z,80132.98
2019-03-19T06:56:57.811Z,80109.73
2019-03-19T06:59:27.039Z,80100.63
2019-03-19T07:01:56.555Z,80083.45
2019-03-19T07:04:26.196Z,80065.25
2019-03-19T07:06:55.367Z,80053.12
2019-03-19T07:09:24.552Z,80051.09
2019-03-19T07:11:53.735Z,80044.02
2019-03-19T07:14:22.965Z,80054.13
2019-03-19T07:16:54.199Z,80048.06
2019-03-19T07:19:23.916Z,80040.98
2019-03-19T07:21:53.193Z,80014.70
2019-03-19T07:24:22.367Z,80008.64
2019-03-19T07:26:51.562Z,79984.38
2019-03-19T07:29:21.017Z,79967.19
2019-03-19T07:31:50.529Z,79958.09
2019-03-19T07:34:22.926Z,79937.88
2019-03-19T07:36:52.476Z,79927.77
2019-03-19T07:39:22.012Z,79912.61
2019-03-19T07:41:51.514Z,79921.70
2019-03-19T07:44:21.333Z,79928.78
2019-03-19T07:46:50.598Z,79935.86
2019-03-19T07:49:20.039Z,79931.81
2019-03-19T07:51:49.880Z,79923.72
2019-03-19T07:54:19.127Z,79905.53
2019-03-19T07:56:48.300Z,79892.39
2019-03-19T07:59:18.367Z,79901.48
2019-03-19T08:01:50.050Z,79895.42
2019-03-19T08:04:19.294Z,79888.34
2019-03-19T08:06:52.018Z,79890.36
2019-03-19T08:09:22.350Z,79876.21
2019-03-19T08:11:51.873Z,79867.11
2019-03-19T08:14:21.440Z,79878.23
2019-03-19T08:16:53.168Z,79876.21
2019-03-19T08:19:22.274Z,79841.84
2019-03-19T08:21:51.461Z,79844.88
2019-03-19T08:24:20.651Z,79834.77
2019-03-19T08:26:51.010Z,79816.57
2019-03-19T08:29:20.218Z,79815.56
2019-03-19T08:31:49.352Z,79811.52
2019-03-19T08:34:19.066Z,79805.45
2019-03-19T08:36:48.206Z,79796.36
2019-03-19T08:39:17.777Z,79771.08
2019-03-19T08:41:48.435Z,79764.01
2019-03-19T08:44:27.274Z,79764.01
2019-03-19T08:46:48.552Z,79743.80
2019-03-19T08:49:17.793Z,79737.73
2019-03-19T08:51:47.348Z,79756.94
2019-03-19T08:54:16.553Z,79734.70
2019-03-19T08:56:45.738Z,79716.50
2019-03-19T08:59:15.533Z,79729.64
2019-03-19T09:01:44.695Z,79689.20
2019-03-19T09:04:13.874Z,79675.05
2019-03-19T09:06:43.434Z,79679.10
2019-03-19T09:09:15.350Z,79685.16
2019-03-19T09:11:44.905Z,79656.86
2019-03-19T09:14:15.249Z,79655.85
2019-03-19T09:16:45.764Z,79646.75
2019-03-19T09:19:15.627Z,79628.56
2019-03-19T09:21:45.079Z,79599.25
2019-03-19T09:24:14.267Z,79598.23
2019-03-19T09:26:43.924Z,79580.04
2019-03-19T09:29:17.038Z,79570.95
2019-03-19T09:31:44.338Z,79531.52
2019-03-19T09:34:13.947Z,79464.81
2019-03-19T09:36:43.156Z,79430.45
2019-03-19T09:39:13.007Z,79467.84
2019-03-19T09:41:42.781Z,79427.41
2019-03-19T09:44:11.964Z,79440.55
2019-03-19T09:46:42.257Z,79385.97
2019-03-19T09:49:11.699Z,79342.52
2019-03-19T09:51:41.341Z,79307.14
2019-03-19T09:54:10.507Z,79299.05
2019-03-19T09:56:39.997Z,79309.16
2019-03-19T09:59:09.215Z,79347.56
2019-03-19T10:01:39.813Z,79385.97
2019-03-19T10:04:09.373Z,79352.63
2019-03-19T10:06:38.575Z,79342.52
2019-03-19T10:09:11.995Z,79338.47
2019-03-19T10:11:41.264Z,79290.97
2019-03-19T10:14:11.754Z,79268.73
2019-03-19T10:16:40.900Z,79158.56
2019-03-19T10:19:10.761Z,79129.25
2019-03-19T10:21:40.515Z,79194.95
2019-03-19T10:24:10.014Z,79196.97
2019-03-19T10:26:39.560Z,79143.41
2019-03-19T10:29:08.770Z,79141.38
2019-03-19T10:31:38.332Z,79176.76
2019-03-19T10:34:07.556Z,79158.56
2019-03-19T10:36:36.801Z,79168.67
2019-03-19T10:39:09.170Z,79198.99
2019-03-19T10:41:38.567Z,79217.19
2019-03-19T10:44:07.710Z,79213.14
2019-03-19T10:46:37.211Z,79155.53
2019-03-19T10:49:06.380Z,79172.72
2019-03-19T10:51:36.573Z,79195.96
2019-03-19T10:54:05.741Z,79220.22
2019-03-19T10:56:35.100Z,79266.71
2019-03-19T10:59:05.892Z,79277.83
2019-03-19T11:01:35.038Z,79294.00
2019-03-19T11:04:04.219Z,79315.23
2019-03-19T11:06:33.375Z,79282.88
2019-03-19T11:09:02.627Z,79247.51
2019-03-19T11:11:34.531Z,79215.16
2019-03-19T11:14:04.033Z,79249.53
2019-03-19T11:16:33.954Z,79249.53
2019-03-19T11:19:03.552Z,79258.63
2019-03-19T11:21:34.587Z,79243.47
2019-03-19T11:24:04.083Z,79223.25
2019-03-19T11:26:33.606Z,79217.19
2019-03-19T11:29:02.780Z,79163.62
2019-03-19T11:31:32.214Z,79144.42
2019-03-19T11:34:01.448Z,79155.53
2019-03-19T11:36:30.669Z,79173.73
2019-03-19T11:39:00.955Z,79183.83
2019-03-19T11:41:30.177Z,79151.48
2019-03-19T11:43:59.345Z,79151.48
2019-03-19T11:46:28.943Z,79174.73
2019-03-19T11:48:58.095Z,79215.16
2019-03-19T11:51:27.315Z,79220.22
2019-03-19T11:53:56.483Z,79183.83
2019-03-19T11:56:26.797Z,79149.47
2019-03-19T11:58:55.990Z,79180.80
2019-03-19T12:01:25.488Z,79229.31
2019-03-19T12:03:54.675Z,79227.30
2019-03-19T12:06:23.938Z,79230.33
2019-03-19T12:08:53.490Z,79218.20
2019-03-19T12:11:22.661Z,79209.10
2019-03-19T12:13:51.857Z,79190.91
2019-03-19T12:16:21.036Z,79189.89
2019-03-19T12:18:50.510Z,79190.91
2019-03-19T12:21:19.663Z,79197.98
2019-03-19T12:23:49.220Z,79189.89
2019-03-19T12:26:18.815Z,79188.89
2019-03-19T12:28:48.367Z,79182.83
2019-03-19T12:31:17.910Z,79152.50
2019-03-19T12:33:47.456Z,79154.52
2019-03-19T12:36:17.111Z,79157.55
2019-03-19T12:38:46.267Z,79166.65
2019-03-19T12:41:15.474Z,79156.55
2019-03-19T12:43:45.471Z,79159.58
2019-03-19T12:46:14.642Z,79173.73
2019-03-19T12:48:44.147Z,79164.63
2019-03-19T12:51:13.293Z,79161.59
2019-03-19T12:53:42.915Z,79146.44
2019-03-19T12:56:15.046Z,79144.42
2019-03-19T12:58:47.347Z,79126.22
2019-03-19T13:01:16.580Z,79123.19
2019-03-19T13:03:45.818Z,79093.88
2019-03-19T13:06:15.227Z,79111.06
2019-03-19T13:08:44.401Z,79090.85
2019-03-19T13:11:13.591Z,79089.84
2019-03-19T13:13:42.744Z,79075.69
2019-03-19T13:16:11.907Z,79075.69
2019-03-19T13:18:43.125Z,79043.34
2019-03-19T13:21:12.339Z,79044.36
2019-03-19T13:23:41.514Z,79068.61
2019-03-19T13:26:12.007Z,79045.38
2019-03-19T13:28:43.276Z,79044.36
2019-03-19T13:31:12.434Z,78994.84
2019-03-19T13:33:41.651Z,79018.08
2019-03-19T13:36:10.869Z,79030.21
2019-03-19T13:38:40.318Z,78973.61
2019-03-19T13:41:09.812Z,78957.45
2019-03-19T13:43:38.966Z,78941.27
2019-03-19T13:46:08.209Z,78898.83
2019-03-19T13:48:38.153Z,78916.02
2019-03-19T13:51:07.325Z,78880.64
2019-03-19T13:53:36.523Z,78900.84
2019-03-19T13:56:05.980Z,78894.78
2019-03-19T13:58:37.211Z,78915.00
2019-03-19T14:01:07.487Z,78836.17
2019-03-19T14:03:36.671Z,78878.62
2019-03-19T14:06:05.862Z,78919.05
2019-03-19T14:08:35.048Z,78975.64
2019-03-19T14:11:04.527Z,78957.45
2019-03-19T14:13:33.700Z,78915.00
2019-03-19T14:16:02.899Z,78903.88
2019-03-19T14:18:33.099Z,78899.84
2019-03-19T14:21:02.284Z,78823.03
2019-03-19T14:23:31.772Z,78850.32
2019-03-19T14:26:00.992Z,78848.30
2019-03-19T14:28:32.203Z,78845.27
2019-03-19T14:31:08.447Z,78867.50
2019-03-19T14:33:32.336Z,78873.56
2019-03-19T14:36:01.898Z,78881.65
2019-03-19T14:38:31.136Z,78891.75
2019-03-19T14:41:00.326Z,78897.81
2019-03-19T14:43:29.828Z,78899.84
2019-03-19T14:45:59.344Z,78933.19
2019-03-19T14:48:28.558Z,78951.38
2019-03-19T14:50:57.814Z,78931.17
2019-03-19T14:53:28.070Z,78929.15
2019-03-19T14:55:57.227Z,78921.06
2019-03-19T14:58:27.501Z,78865.48
2019-03-19T15:00:56.694Z,78834.15
2019-03-19T15:03:25.882Z,78900.84
2019-03-19T15:05:56.312Z,78924.09
2019-03-19T15:08:25.701Z,78935.21
2019-03-19T15:10:54.983Z,78950.38
2019-03-19T15:13:24.188Z,78974.63
2019-03-19T15:15:54.449Z,78979.68
2019-03-19T15:18:23.955Z,78985.74
2019-03-19T15:20:53.452Z,78974.63
2019-03-19T15:23:22.630Z,79007.98
2019-03-19T15:25:54.205Z,79020.11
2019-03-19T15:28:23.434Z,79027.18
2019-03-19T15:30:52.658Z,79015.05
2019-03-19T15:33:21.872Z,79043.34
2019-03-19T15:35:51.031Z,79052.45
2019-03-19T15:38:22.085Z,79060.53
2019-03-19T15:40:51.299Z,79062.55
2019-03-19T15:43:20.950Z,79051.44
2019-03-19T15:45:50.155Z,79029.20
2019-03-19T15:48:19.947Z,79003.94
2019-03-19T15:50:49.134Z,79030.21
2019-03-19T15:53:18.363Z,79034.25
2019-03-19T15:55:47.523Z,79017.08
2019-03-19T15:58:16.749Z,79032.23
2019-03-19T16:00:46.004Z,79007.98
2019-03-19T16:03:15.503Z,79007.98
2019-03-19T16:05:44.677Z,78992.81
2019-03-19T16:08:13.843Z,78978.67
2019-03-19T16:10:44.723Z,78974.63
2019-03-19T16:13:13.954Z,79014.05
2019-03-19T16:15:43.285Z,78999.89
2019-03-19T16:18:12.463Z,79028.19
2019-03-19T16:20:41.622Z,79046.38
2019-03-19T16:23:10.823Z,79049.41
2019-03-19T16:25:40.308Z,79060.53
2019-03-19T16:28:12.580Z,79068.61
2019-03-19T16:30:42.083Z,79083.78
2019-03-19T16:33:11.278Z,79092.88
2019-03-19T16:35:40.838Z,79107.02
2019-03-19T16:38:10.425Z,79115.11
2019-03-19T16:40:39.594Z,79119.15
2019-03-19T16:43:10.841Z,79125.22
2019-03-19T16:45:42.197Z,79140.38
2019-03-19T16:48:11.406Z,79156.55
2019-03-19T16:50:40.636Z,79164.63
2019-03-19T16:53:09.799Z,79165.64
2019-03-19T16:55:39.106Z,79190.91
2019-03-19T16:58:08.587Z,79213.14
2019-03-19T17:00:37.841Z,79215.16
2019-03-19T17:03:09.010Z,79230.33
2019-03-19T17:05:38.185Z,79244.47
2019-03-19T17:08:07.443Z,79244.47
2019-03-19T17:10:37.119Z,79256.60
2019-03-19T17:13:06.769Z,79269.74
2019-03-19T17:15:35.926Z,79277.83
2019-03-19T17:18:05.269Z,79287.94
2019-03-19T17:20:35.486Z,79303.09
2019-03-19T17:23:04.741Z,79318.26
2019-03-19T17:25:35.179Z,79347.56
2019-03-19T17:28:04.529Z,79359.70
2019-03-19T17:30:34.197Z,79385.97
2019-03-19T17:33:03.379Z,79403.16
2019-03-19T17:35:32.640Z,79419.33
2019-03-19T17:38:02.148Z,79440.55
2019-03-19T17:40:40.926Z,79469.87
2019-03-19T17:43:02.855Z,79492.10
2019-03-19T17:45:33.724Z,79517.38
2019-03-19T17:48:03.409Z,79532.53
2019-03-19T17:50:32.808Z,79546.69
2019-03-19T17:53:02.495Z,79550.73
2019-03-19T17:55:31.947Z,79563.87
2019-03-19T17:58:01.167Z,79570.95
2019-03-19T18:00:30.562Z,79574.98
2019-03-19T18:03:00.113Z,79585.09
2019-03-19T18:05:29.318Z,79604.30
2019-03-19T18:07:58.511Z,79625.53
2019-03-19T18:10:30.729Z,79639.67
2019-03-19T18:12:59.896Z,79652.81
2019-03-19T18:15:29.742Z,79658.88
2019-03-19T18:17:59.755Z,79662.92
2019-03-19T18:20:29.827Z,79672.02
2019-03-19T18:22:59.842Z,79689.20
2019-03-19T18:25:29.505Z,79695.27
2019-03-19T18:27:59.024Z,79708.41
2019-03-19T18:30:28.554Z,79711.45
2019-03-19T18:32:58.046Z,79668.99
2019-03-19T18:35:27.359Z,79666.97
2019-03-19T18:37:56.622Z,79662.92
2019-03-19T18:40:26.156Z,79633.61
2019-03-19T18:42:56.053Z,79596.22
2019-03-19T18:45:25.377Z,79578.02
2019-03-19T18:47:55.041Z,79589.14
2019-03-19T18:50:24.723Z,79596.22
2019-03-19T18:52:53.935Z,79608.34
2019-03-19T18:55:25.335Z,79629.57
2019-03-19T18:57:55.520Z,79641.70
2019-03-19T19:00:26.981Z,79668.99
2019-03-19T19:02:56.516Z,79687.19
2019-03-19T19:05:25.722Z,79716.50
2019-03-19T19:07:55.311Z,79724.59
2019-03-19T19:10:24.860Z,79732.67
2019-03-19T19:12:54.022Z,79739.75
2019-03-19T19:15:23.234Z,79756.94
2019-03-19T19:17:52.762Z,79772.09
2019-03-19T19:20:22.251Z,79781.19
2019-03-19T19:22:52.023Z,79777.15
2019-03-19T19:25:21.249Z,79769.06
2019-03-19T19:27:50.440Z,79770.08
2019-03-19T19:30:19.963Z,79773.11
2019-03-19T19:33:00.547Z,79788.27
2019-03-19T19:35:20.443Z,79792.31
2019-03-19T19:37:50.041Z,79799.39
2019-03-19T19:40:19.182Z,79808.48
2019-03-19T19:42:48.764Z,79819.61
2019-03-19T19:45:18.127Z,79831.73
2019-03-19T19:47:49.081Z,79838.81
2019-03-19T19:50:18.899Z,79826.68
2019-03-19T19:52:48.081Z,79836.79
2019-03-19T19:55:17.755Z,79834.77
2019-03-19T19:57:46.989Z,79838.81
2019-03-19T20:00:16.965Z,79843.86
2019-03-19T20:02:46.620Z,79844.88
2019-03-19T20:05:15.812Z,79842.86
2019-03-19T20:07:45.652Z,79851.95
2019-03-19T20:10:16.562Z,79850.94
2019-03-19T20:12:45.854Z,79860.04
2019-03-19T20:15:15.039Z,79867.11
2019-03-19T20:17:44.403Z,79867.11
2019-03-19T20:20:15.488Z,79873.18
2019-03-19T20:22:44.979Z,79887.33
2019-03-19T20:25:14.194Z,79898.45
2019-03-19T20:27:43.742Z,79893.39
2019-03-19T20:30:15.741Z,79906.54
2019-03-19T20:32:46.262Z,79901.48
2019-03-19T20:35:15.413Z,79908.56
2019-03-19T20:37:44.609Z,79914.63
2019-03-19T20:40:14.493Z,79909.57
2019-03-19T20:42:44.157Z,79917.66
2019-03-19T20:45:13.503Z,79916.64
2019-03-19T20:47:42.803Z,79934.84
2019-03-19T20:50:20.821Z,79931.81
2019-03-19T20:52:50.422Z,79935.86
2019-03-19T20:55:19.671Z,79926.75
2019-03-19T20:57:49.123Z,79913.61
2019-03-19T21:00:18.633Z,79920.69
2019-03-19T21:02:48.070Z,79899.46
2019-03-19T21:05:17.215Z,79888.34
2019-03-19T21:07:46.836Z,79876.21
2019-03-19T21:10:17.590Z,79862.06
2019-03-19T21:12:46.917Z,79868.13
2019-03-19T21:15:21.374Z,79869.14
2019-03-19T21:17:50.595Z,79869.14
2019-03-19T21:20:20.165Z,79863.07
2019-03-19T21:22:49.695Z,79853.97
2019-03-19T21:25:18.864Z,79853.97
2019-03-19T21:27:48.490Z,79849.93
2019-03-19T21:30:18.148Z,79849.93
2019-03-19T21:32:47.385Z,79850.94
2019-03-19T21:35:19.597Z,79845.89
2019-03-19T21:37:49.266Z,79836.79
2019-03-19T21:40:18.433Z,79828.70
2019-03-19T21:42:48.013Z,79823.65
2019-03-19T21:45:17.241Z,79817.58
2019-03-19T21:47:46.413Z,79809.50
2019-03-19T21:50:15.922Z,79797.36
2019-03-19T21:52:45.091Z,79779.17
2019-03-19T21:55:14.879Z,79778.16
2019-03-19T21:57:44.127Z,79778.16
2019-03-19T22:00:15.199Z,79779.17
2019-03-19T22:02:44.456Z,79780.19
2019-03-19T22:05:14.244Z,79766.03
2019-03-19T22:07:43.768Z,79757.94
2019-03-19T22:10:14.171Z,79761.98
2019-03-19T22:12:43.672Z,79764.01
2019-03-19T22:15:15.540Z,79767.05
2019-03-19T22:17:45.057Z,79785.23
2019-03-19T22:20:14.649Z,79792.31
2019-03-19T22:22:44.213Z,79802.42
2019-03-19T22:25:14.164Z,79801.41
2019-03-19T22:27:43.407Z,79813.54
2019-03-19T22:30:14.547Z,79814.55
2019-03-19T22:32:43.759Z,79822.64
2019-03-19T22:35:13.197Z,79833.75
2019-03-19T22:37:42.856Z,79827.69
2019-03-19T22:40:13.328Z,79832.75
2019-03-19T22:42:42.493Z,79835.78
2019-03-19T22:45:12.891Z,79838.81
2019-03-19T22:47:42.075Z,79835.78
2019-03-19T22:50:12.357Z,79839.82
2019-03-19T22:52:43.012Z,79831.73
2019-03-19T22:55:12.514Z,79847.91
2019-03-19T22:57:42.002Z,79838.81
2019-03-19T23:00:18.855Z,79835.78
2019-03-19T23:02:47.991Z,79847.91
2019-03-19T23:05:17.183Z,79863.07
2019-03-19T23:07:46.470Z,79864.08
2019-03-19T23:11:09.620Z,79859.03
2019-03-19T23:13:39.209Z,79850.94
2019-03-19T23:16:24.786Z,79867.11
2019-03-19T23:18:54.095Z,79865.09
2019-03-19T23:21:23.508Z,79862.06
2019-03-19T23:23:53.004Z,79864.08
2019-03-19T23:26:22.560Z,79871.16
2019-03-19T23:28:52.155Z,79879.25
2019-03-19T23:31:21.619Z,79887.33
2019-03-19T23:33:50.917Z,79890.36
2019-03-19T23:36:20.633Z,79891.38
2019-03-19T23:38:49.734Z,79900.47
2019-03-19T23:41:20.416Z,79908.56
2019-03-19T23:43:50.003Z,79911.59
2019-03-19T23:46:19.473Z,79904.52
2019-03-19T23:48:48.681Z,79909.57
2019-03-19T23:51:19.333Z,79913.61
2019-03-19T23:53:48.869Z,79914.63
2019-03-19T23:56:18.039Z,79917.66
2019-03-19T23:58:47.329Z,79922.72
